sensor_id;sensor_type;location;lat;lon;timestamp;pressure;altitude;pressure_sealevel;temperature;humidity
22938;BME280;11634;42.734;23.298;2023-12-04T00:00:38;95831.28;;;0.29;100.00
22938;BME280;11634;42.734;23.298;2023-12-04T00:03:03;95808.88;;;0.35;100.00
22938;BME280;11634;42.734;23.298;2023-12-04T00:05:29;95829.69;;;0.48;100.00
22938;BME280;11634;42.734;23.298;2023-12-04T00:07:55;95822.88;;;0.47;100.00
22938;BME280;11634;42.734;23.298;2023-12-04T00:10:20;95829.34;;;0.55;100.00
22938;BME280;11634;42.734;23.298;2023-12-04T00:12:46;95831.78;;;0.38;100.00
22938;BME280;11634;42.734;23.298;2023-12-04T00:15:12;95796.13;;;0.12;100.00
22938;BME280;11634;42.734;23.298;2023-12-04T00:17:38;95850.31;;;0.43;100.00
22938;BME280;11634;42.734;23.298;2023-12-04T00:20:09;95845.03;;;0.48;100.00
22938;BME280;11634;42.734;23.298;2023-12-04T00:22:35;95855.34;;;0.46;100.00
22938;BME280;11634;42.734;23.298;2023-12-04T00:25:02;95856.81;;;0.52;100.00
22938;BME280;11634;42.734;23.298;2023-12-04T00:27:29;95857.94;;;0.45;100.00
22938;BME280;11634;42.734;23.298;2023-12-04T00:29:56;95851.31;;;0.39;100.00
22938;BME280;11634;42.734;23.298;2023-12-04T00:32:24;95859.25;;;0.33;100.00
22938;BME280;11634;42.734;23.298;2023-12-04T00:34:50;95851.91;;;0.24;100.00
22938;BME280;11634;42.734;23.298;2023-12-04T00:37:15;95853.84;;;0.19;100.00
22938;BME280;11634;42.734;23.298;2023-12-04T00:39:41;95854.53;;;0.23;100.00
22938;BME280;11634;42.734;23.298;2023-12-04T00:42:07;95857.16;;;0.21;100.00
22938;BME280;11634;42.734;23.298;2023-12-04T00:44:33;95863.19;;;0.20;100.00
22938;BME280;11634;42.734;23.298;2023-12-04T00:46:58;95848.13;;;0.13;100.00
22938;BME280;11634;42.734;23.298;2023-12-04T00:49:24;95883.97;;;0.34;100.00
22938;BME280;11634;42.734;23.298;2023-12-04T00:51:50;95859.91;;;0.17;100.00
22938;BME280;11634;42.734;23.298;2023-12-04T00:54:15;95883.47;;;0.25;100.00
22938;BME280;11634;42.734;23.298;2023-12-04T00:56:41;95866.19;;;0.30;100.00
22938;BME280;11634;42.734;23.298;2023-12-04T00:59:10;95877.38;;;0.49;100.00
22938;BME280;11634;42.734;23.298;2023-12-04T01:01:39;95885.56;;;0.37;100.00
22938;BME280;11634;42.734;23.298;2023-12-04T01:04:05;95866.91;;;0.12;100.00
22938;BME280;11634;42.734;23.298;2023-12-04T01:06:30;95863.53;;;0.11;100.00
22938;BME280;11634;42.734;23.298;2023-12-04T01:08:57;95863.59;;;0.10;100.00
22938;BME280;11634;42.734;23.298;2023-12-04T01:11:23;95879.41;;;0.19;100.00
22938;BME280;11634;42.734;23.298;2023-12-04T01:13:49;95845.75;;;0.08;100.00
22938;BME280;11634;42.734;23.298;2023-12-04T01:16:15;95867.16;;;0.06;100.00
22938;BME280;11634;42.734;23.298;2023-12-04T01:18:41;95885.47;;;0.17;100.00
22938;BME280;11634;42.734;23.298;2023-12-04T01:21:08;95880.63;;;0.11;100.00
22938;BME280;11634;42.734;23.298;2023-12-04T01:23:36;95849.59;;;-0.03;100.00
22938;BME280;11634;42.734;23.298;2023-12-04T01:26:03;95854.53;;;0.01;100.00
22938;BME280;11634;42.734;23.298;2023-12-04T01:28:29;95883.16;;;0.11;100.00
22938;BME280;11634;42.734;23.298;2023-12-04T01:30:55;95883.25;;;0.08;100.00
22938;BME280;11634;42.734;23.298;2023-12-04T01:33:20;95895.16;;;0.09;100.00
22938;BME280;11634;42.734;23.298;2023-12-04T01:35:46;95890.88;;;0.09;100.00
22938;BME280;11634;42.734;23.298;2023-12-04T01:38:12;95893.50;;;0.08;100.00
22938;BME280;11634;42.734;23.298;2023-12-04T01:40:38;95896.03;;;0.08;100.00
22938;BME280;11634;42.734;23.298;2023-12-04T01:43:06;95914.75;;;0.10;100.00
22938;BME280;11634;42.734;23.298;2023-12-04T01:45:32;95915.19;;;-0.02;100.00
22938;BME280;11634;42.734;23.298;2023-12-04T01:47:58;95913.31;;;0.03;100.00
22938;BME280;11634;42.734;23.298;2023-12-04T01:50:24;95900.59;;;-0.21;100.00
22938;BME280;11634;42.734;23.298;2023-12-04T01:52:52;95901.22;;;-0.16;100.00
22938;BME280;11634;42.734;23.298;2023-12-04T01:55:20;95911.63;;;0.02;100.00
22938;BME280;11634;42.734;23.298;2023-12-04T01:57:48;95928.53;;;0.06;100.00
22938;BME280;11634;42.734;23.298;2023-12-04T02:00:15;95911.41;;;0.08;100.00
22938;BME280;11634;42.734;23.298;2023-12-04T02:02:41;95862.72;;;-0.35;100.00
22938;BME280;11634;42.734;23.298;2023-12-04T02:05:11;95885.19;;;-0.20;100.00
22938;BME280;11634;42.734;23.298;2023-12-04T02:07:40;95928.78;;;0.00;100.00
22938;BME280;11634;42.734;23.298;2023-12-04T02:10:06;95914.13;;;-0.19;100.00
22938;BME280;11634;42.734;23.298;2023-12-04T02:12:35;95925.34;;;-0.01;100.00
22938;BME280;11634;42.734;23.298;2023-12-04T02:15:01;95878.63;;;-0.27;100.00
22938;BME280;11634;42.734;23.298;2023-12-04T02:17:28;95885.31;;;-0.23;100.00
22938;BME280;11634;42.734;23.298;2023-12-04T02:19:54;95928.16;;;-0.06;100.00
22938;BME280;11634;42.734;23.298;2023-12-04T02:22:20;95914.81;;;-0.14;100.00
22938;BME280;11634;42.734;23.298;2023-12-04T02:24:46;95943.75;;;-0.14;100.00
22938;BME280;11634;42.734;23.298;2023-12-04T02:27:18;95927.75;;;-0.19;100.00
22938;BME280;11634;42.734;23.298;2023-12-04T02:29:59;95936.16;;;-0.15;100.00
22938;BME280;11634;42.734;23.298;2023-12-04T02:32:29;95944.34;;;-0.30;100.00
22938;BME280;11634;42.734;23.298;2023-12-04T02:37:23;95941.84;;;-0.32;100.00
22938;BME280;11634;42.734;23.298;2023-12-04T02:39:50;95925.25;;;-0.43;100.00
22938;BME280;11634;42.734;23.298;2023-12-04T02:42:21;95903.03;;;-0.65;100.00
22938;BME280;11634;42.734;23.298;2023-12-04T02:44:46;95898.75;;;-0.65;100.00
22938;BME280;11634;42.734;23.298;2023-12-04T02:47:12;95962.53;;;-0.38;100.00
22938;BME280;11634;42.734;23.298;2023-12-04T02:49:38;95926.88;;;-0.65;100.00
22938;BME280;11634;42.734;23.298;2023-12-04T02:52:03;95933.31;;;-0.55;100.00
22938;BME280;11634;42.734;23.298;2023-12-04T02:54:31;95946.00;;;-0.52;100.00
22938;BME280;11634;42.734;23.298;2023-12-04T02:56:56;95928.72;;;-0.70;100.00
22938;BME280;11634;42.734;23.298;2023-12-04T02:59:22;95936.81;;;-0.57;100.00
22938;BME280;11634;42.734;23.298;2023-12-04T03:01:48;95949.59;;;-0.57;100.00
22938;BME280;11634;42.734;23.298;2023-12-04T03:04:13;95947.81;;;-0.56;100.00
22938;BME280;11634;42.734;23.298;2023-12-04T03:06:39;95922.31;;;-0.81;100.00
22938;BME280;11634;42.734;23.298;2023-12-04T03:09:05;95953.34;;;-0.67;100.00
22938;BME280;11634;42.734;23.298;2023-12-04T03:11:31;95941.66;;;-0.74;100.00
22938;BME280;11634;42.734;23.298;2023-12-04T03:13:59;95941.66;;;-0.74;100.00
22938;BME280;11634;42.734;23.298;2023-12-04T03:16:25;95917.47;;;-0.89;100.00
22938;BME280;11634;42.734;23.298;2023-12-04T03:18:51;95914.28;;;-0.95;100.00
22938;BME280;11634;42.734;23.298;2023-12-04T03:21:17;95946.84;;;-0.77;100.00
22938;BME280;11634;42.734;23.298;2023-12-04T03:23:42;95946.91;;;-0.79;100.00
22938;BME280;11634;42.734;23.298;2023-12-04T03:26:08;95950.00;;;-0.69;100.00
22938;BME280;11634;42.734;23.298;2023-12-04T03:28:35;95955.78;;;-0.64;100.00
22938;BME280;11634;42.734;23.298;2023-12-04T03:31:02;95963.56;;;-0.67;100.00
22938;BME280;11634;42.734;23.298;2023-12-04T03:33:27;95941.09;;;-0.82;100.00
22938;BME280;11634;42.734;23.298;2023-12-04T03:35:56;95934.75;;;-0.97;100.00
22938;BME280;11634;42.734;23.298;2023-12-04T03:38:21;95951.91;;;-0.76;100.00
22938;BME280;11634;42.734;23.298;2023-12-04T03:40:47;95961.94;;;-0.70;100.00
22938;BME280;11634;42.734;23.298;2023-12-04T03:43:12;95976.22;;;-0.64;100.00
22938;BME280;11634;42.734;23.298;2023-12-04T03:45:38;95979.88;;;-0.71;100.00
22938;BME280;11634;42.734;23.298;2023-12-04T03:48:04;95972.16;;;-0.70;100.00
22938;BME280;11634;42.734;23.298;2023-12-04T03:50:29;95984.06;;;-0.69;100.00
22938;BME280;11634;42.734;23.298;2023-12-04T03:52:55;95977.84;;;-0.62;100.00
22938;BME280;11634;42.734;23.298;2023-12-04T03:55:21;95972.97;;;-0.69;100.00
22938;BME280;11634;42.734;23.298;2023-12-04T03:57:46;95973.84;;;-0.69;100.00
22938;BME280;11634;42.734;23.298;2023-12-04T04:00:12;95928.59;;;-0.91;100.00
22938;BME280;11634;42.734;23.298;2023-12-04T04:02:43;95951.41;;;-0.85;100.00
22938;BME280;11634;42.734;23.298;2023-12-04T04:05:09;95987.28;;;-0.64;100.00
22938;BME280;11634;42.734;23.298;2023-12-04T04:07:35;95968.19;;;-0.78;100.00
22938;BME280;11634;42.734;23.298;2023-12-04T04:10:00;95973.59;;;-0.87;100.00
22938;BME280;11634;42.734;23.298;2023-12-04T04:12:30;95968.00;;;-0.98;100.00
22938;BME280;11634;42.734;23.298;2023-12-04T04:14:57;95982.72;;;-0.80;100.00
22938;BME280;11634;42.734;23.298;2023-12-04T04:17:22;95996.28;;;-0.78;100.00
22938;BME280;11634;42.734;23.298;2023-12-04T04:19:54;95958.59;;;-0.98;100.00
22938;BME280;11634;42.734;23.298;2023-12-04T04:22:21;95950.47;;;-1.09;100.00
22938;BME280;11634;42.734;23.298;2023-12-04T04:24:47;95986.91;;;-0.78;100.00
22938;BME280;11634;42.734;23.298;2023-12-04T04:27:13;95949.38;;;-1.27;100.00
22938;BME280;11634;42.734;23.298;2023-12-04T04:29:39;95986.84;;;-1.02;100.00
22938;BME280;11634;42.734;23.298;2023-12-04T04:32:05;95984.88;;;-0.94;100.00
22938;BME280;11634;42.734;23.298;2023-12-04T04:34:31;95951.16;;;-1.29;100.00
22938;BME280;11634;42.734;23.298;2023-12-04T04:36:57;95939.41;;;-1.35;100.00
22938;BME280;11634;42.734;23.298;2023-12-04T04:39:23;95978.03;;;-1.19;100.00
22938;BME280;11634;42.734;23.298;2023-12-04T04:41:49;96014.78;;;-0.98;100.00
22938;BME280;11634;42.734;23.298;2023-12-04T04:44:14;96004.13;;;-1.10;100.00
22938;BME280;11634;42.734;23.298;2023-12-04T04:46:40;95974.94;;;-1.29;100.00
22938;BME280;11634;42.734;23.298;2023-12-04T04:49:06;95981.22;;;-1.39;100.00
22938;BME280;11634;42.734;23.298;2023-12-04T04:51:33;96015.22;;;-1.11;100.00
22938;BME280;11634;42.734;23.298;2023-12-04T04:54:02;96022.59;;;-1.02;100.00
22938;BME280;11634;42.734;23.298;2023-12-04T04:56:30;96029.31;;;-1.00;100.00
22938;BME280;11634;42.734;23.298;2023-12-04T04:58:57;96039.72;;;-1.06;100.00
22938;BME280;11634;42.734;23.298;2023-12-04T05:01:23;96025.16;;;-1.02;100.00
22938;BME280;11634;42.734;23.298;2023-12-04T05:03:50;95944.84;;;-1.45;100.00
22938;BME280;11634;42.734;23.298;2023-12-04T05:06:16;96010.91;;;-1.09;100.00
22938;BME280;11634;42.734;23.298;2023-12-04T05:08:42;96023.06;;;-1.17;100.00
22938;BME280;11634;42.734;23.298;2023-12-04T05:11:08;95989.38;;;-1.28;100.00
22938;BME280;11634;42.734;23.298;2023-12-04T05:13:34;96025.19;;;-1.04;100.00
22938;BME280;11634;42.734;23.298;2023-12-04T05:15:59;96047.19;;;-1.00;100.00
22938;BME280;11634;42.734;23.298;2023-12-04T05:18:25;96065.03;;;-0.98;100.00
22938;BME280;11634;42.734;23.298;2023-12-04T05:20:51;96043.56;;;-0.93;100.00
22938;BME280;11634;42.734;23.298;2023-12-04T05:23:16;96023.16;;;-0.93;100.00
22938;BME280;11634;42.734;23.298;2023-12-04T05:25:43;96025.00;;;-0.98;100.00
22938;BME280;11634;42.734;23.298;2023-12-04T05:28:09;95965.88;;;-1.37;100.00
22938;BME280;11634;42.734;23.298;2023-12-04T05:30:35;96013.41;;;-1.08;100.00
22938;BME280;11634;42.734;23.298;2023-12-04T05:33:00;96051.50;;;-1.00;100.00
22938;BME280;11634;42.734;23.298;2023-12-04T05:35:27;96037.13;;;-1.04;100.00
22938;BME280;11634;42.734;23.298;2023-12-04T05:37:56;95986.94;;;-1.31;100.00
22938;BME280;11634;42.734;23.298;2023-12-04T05:40:23;95975.75;;;-1.27;100.00
22938;BME280;11634;42.734;23.298;2023-12-04T05:42:48;96044.75;;;-1.03;100.00
22938;BME280;11634;42.734;23.298;2023-12-04T05:45:14;96018.28;;;-1.27;100.00
22938;BME280;11634;42.734;23.298;2023-12-04T05:47:40;96040.38;;;-0.99;100.00
22938;BME280;11634;42.734;23.298;2023-12-04T05:50:06;96005.19;;;-1.17;100.00
22938;BME280;11634;42.734;23.298;2023-12-04T05:52:32;96051.09;;;-0.88;100.00
22938;BME280;11634;42.734;23.298;2023-12-04T05:54:58;96021.31;;;-1.15;100.00
22938;BME280;11634;42.734;23.298;2023-12-04T05:57:25;96051.88;;;-0.86;100.00
22938;BME280;11634;42.734;23.298;2023-12-04T05:59:50;96057.56;;;-1.04;100.00
22938;BME280;11634;42.734;23.298;2023-12-04T06:02:17;96060.19;;;-1.07;100.00
22938;BME280;11634;42.734;23.298;2023-12-04T06:04:42;96068.34;;;-0.96;100.00
22938;BME280;11634;42.734;23.298;2023-12-04T06:07:08;96052.47;;;-1.04;100.00
22938;BME280;11634;42.734;23.298;2023-12-04T06:09:35;95984.94;;;-1.49;100.00
22938;BME280;11634;42.734;23.298;2023-12-04T06:12:02;96078.44;;;-0.92;100.00
22938;BME280;11634;42.734;23.298;2023-12-04T06:14:34;96042.31;;;-1.07;100.00
22938;BME280;11634;42.734;23.298;2023-12-04T06:17:00;96018.16;;;-1.23;100.00
22938;BME280;11634;42.734;23.298;2023-12-04T06:19:28;96079.22;;;-0.90;100.00
22938;BME280;11634;42.734;23.298;2023-12-04T06:21:55;96072.59;;;-0.95;100.00
22938;BME280;11634;42.734;23.298;2023-12-04T06:24:21;96046.28;;;-1.24;100.00
22938;BME280;11634;42.734;23.298;2023-12-04T06:26:49;96054.03;;;-1.00;100.00
22938;BME280;11634;42.734;23.298;2023-12-04T06:29:16;96084.78;;;-0.77;100.00
22938;BME280;11634;42.734;23.298;2023-12-04T06:31:42;96068.53;;;-0.75;100.00
22938;BME280;11634;42.734;23.298;2023-12-04T06:34:08;96088.25;;;-0.78;100.00
22938;BME280;11634;42.734;23.298;2023-12-04T06:36:38;96086.31;;;-0.72;100.00
22938;BME280;11634;42.734;23.298;2023-12-04T06:39:11;96091.53;;;-0.75;100.00
22938;BME280;11634;42.734;23.298;2023-12-04T06:41:39;96024.84;;;-1.19;100.00
22938;BME280;11634;42.734;23.298;2023-12-04T06:44:05;96107.09;;;-0.82;100.00
22938;BME280;11634;42.734;23.298;2023-12-04T06:46:34;96037.88;;;-1.01;100.00
22938;BME280;11634;42.734;23.298;2023-12-04T06:49:04;96086.84;;;-0.88;100.00
22938;BME280;11634;42.734;23.298;2023-12-04T06:51:30;96123.53;;;-0.63;100.00
22938;BME280;11634;42.734;23.298;2023-12-04T06:53:56;96045.25;;;-0.92;100.00
22938;BME280;11634;42.734;23.298;2023-12-04T06:56:22;96107.56;;;-0.70;100.00
22938;BME280;11634;42.734;23.298;2023-12-04T06:58:48;96067.44;;;-0.94;100.00
22938;BME280;11634;42.734;23.298;2023-12-04T07:01:14;96145.25;;;-0.51;100.00
22938;BME280;11634;42.734;23.298;2023-12-04T07:03:40;96145.63;;;-0.62;100.00
22938;BME280;11634;42.734;23.298;2023-12-04T07:06:06;96110.75;;;-0.63;100.00
22938;BME280;11634;42.734;23.298;2023-12-04T07:08:32;96134.66;;;-0.39;100.00
22938;BME280;11634;42.734;23.298;2023-12-04T07:10:58;96092.88;;;-0.63;100.00
22938;BME280;11634;42.734;23.298;2023-12-04T07:13:24;96124.09;;;-0.56;100.00
22938;BME280;11634;42.734;23.298;2023-12-04T07:15:49;96124.59;;;-0.43;100.00
22938;BME280;11634;42.734;23.298;2023-12-04T07:18:15;96107.69;;;-0.47;100.00
22938;BME280;11634;42.734;23.298;2023-12-04T07:20:40;96120.88;;;-0.60;100.00
22938;BME280;11634;42.734;23.298;2023-12-04T07:23:06;96116.72;;;-0.37;100.00
22938;BME280;11634;42.734;23.298;2023-12-04T07:25:33;96099.69;;;-0.64;100.00
22938;BME280;11634;42.734;23.298;2023-12-04T07:28:00;96124.75;;;-0.49;100.00
22938;BME280;11634;42.734;23.298;2023-12-04T07:30:26;96119.53;;;-0.46;100.00
22938;BME280;11634;42.734;23.298;2023-12-04T07:32:52;96115.25;;;-0.44;100.00
22938;BME280;11634;42.734;23.298;2023-12-04T07:35:19;96122.03;;;-0.43;100.00
22938;BME280;11634;42.734;23.298;2023-12-04T07:37:44;96128.72;;;-0.66;100.00
22938;BME280;11634;42.734;23.298;2023-12-04T07:40:10;96122.03;;;-0.43;100.00
22938;BME280;11634;42.734;23.298;2023-12-04T07:42:36;96125.94;;;-0.33;100.00
22938;BME280;11634;42.734;23.298;2023-12-04T07:45:03;96125.94;;;-0.07;100.00
22938;BME280;11634;42.734;23.298;2023-12-04T07:47:29;96091.28;;;-0.16;100.00
22938;BME280;11634;42.734;23.298;2023-12-04T07:49:54;96093.03;;;-0.18;100.00
22938;BME280;11634;42.734;23.298;2023-12-04T07:52:20;96112.63;;;-0.17;100.00
22938;BME280;11634;42.734;23.298;2023-12-04T07:54:45;96133.31;;;0.01;100.00
22938;BME280;11634;42.734;23.298;2023-12-04T07:57:12;96129.38;;;-0.08;100.00
22938;BME280;11634;42.734;23.298;2023-12-04T07:59:39;96128.63;;;0.14;100.00
22938;BME280;11634;42.734;23.298;2023-12-04T08:02:05;96133.34;;;0.24;100.00
22938;BME280;11634;42.734;23.298;2023-12-04T08:04:30;96107.75;;;0.01;100.00
22938;BME280;11634;42.734;23.298;2023-12-04T08:06:56;96129.72;;;0.31;100.00
22938;BME280;11634;42.734;23.298;2023-12-04T08:09:22;96142.19;;;0.40;100.00
22938;BME280;11634;42.734;23.298;2023-12-04T08:11:47;96118.75;;;0.28;100.00
22938;BME280;11634;42.734;23.298;2023-12-04T08:14:13;96145.13;;;0.77;100.00
22938;BME280;11634;42.734;23.298;2023-12-04T08:16:39;96139.44;;;0.92;100.00
22938;BME280;11634;42.734;23.298;2023-12-04T08:19:04;96140.13;;;0.74;100.00
22938;BME280;11634;42.734;23.298;2023-12-04T08:21:30;96134.66;;;0.60;100.00
22938;BME280;11634;42.734;23.298;2023-12-04T08:23:57;96121.50;;;0.69;100.00
22938;BME280;11634;42.734;23.298;2023-12-04T08:26:24;96153.63;;;1.02;100.00
22938;BME280;11634;42.734;23.298;2023-12-04T08:28:51;96160.94;;;0.88;100.00
22938;BME280;11634;42.734;23.298;2023-12-04T08:31:17;96157.31;;;0.93;100.00
22938;BME280;11634;42.734;23.298;2023-12-04T08:33:43;96155.75;;;0.89;100.00
22938;BME280;11634;42.734;23.298;2023-12-04T08:36:10;96155.75;;;0.89;100.00
22938;BME280;11634;42.734;23.298;2023-12-04T08:38:36;96150.25;;;0.77;100.00
22938;BME280;11634;42.734;23.298;2023-12-04T08:41:02;96140.25;;;0.94;100.00
22938;BME280;11634;42.734;23.298;2023-12-04T08:43:28;96149.44;;;0.99;100.00
22938;BME280;11634;42.734;23.298;2023-12-04T08:45:54;96134.13;;;1.19;100.00
22938;BME280;11634;42.734;23.298;2023-12-04T08:48:20;96140.97;;;1.41;100.00
22938;BME280;11634;42.734;23.298;2023-12-04T08:50:46;96175.09;;;1.64;100.00
22938;BME280;11634;42.734;23.298;2023-12-04T08:53:11;96153.63;;;1.67;100.00
22938;BME280;11634;42.734;23.298;2023-12-04T08:55:37;96155.03;;;1.53;100.00
22938;BME280;11634;42.734;23.298;2023-12-04T08:58:03;96144.63;;;1.57;100.00
22938;BME280;11634;42.734;23.298;2023-12-04T09:00:30;96149.09;;;1.73;100.00
22938;BME280;11634;42.734;23.298;2023-12-04T09:02:55;96150.13;;;1.89;100.00
22938;BME280;11634;42.734;23.298;2023-12-04T09:05:22;96149.78;;;1.77;100.00
22938;BME280;11634;42.734;23.298;2023-12-04T09:07:48;96139.66;;;1.74;100.00
22938;BME280;11634;42.734;23.298;2023-12-04T09:10:16;96139.81;;;1.91;100.00
22938;BME280;11634;42.734;23.298;2023-12-04T09:12:42;96124.09;;;1.57;100.00
22938;BME280;11634;42.734;23.298;2023-12-04T09:15:08;96137.91;;;1.74;100.00
22938;BME280;11634;42.734;23.298;2023-12-04T09:17:34;96128.56;;;1.73;100.00
22938;BME280;11634;42.734;23.298;2023-12-04T09:19:59;96148.22;;;1.94;100.00
22938;BME280;11634;42.734;23.298;2023-12-04T09:22:25;96119.03;;;1.97;100.00
22938;BME280;11634;42.734;23.298;2023-12-04T09:24:51;96133.13;;;2.28;100.00
22938;BME280;11634;42.734;23.298;2023-12-04T09:27:16;96132.94;;;2.13;100.00
22938;BME280;11634;42.734;23.298;2023-12-04T09:29:42;96085.22;;;1.87;100.00
22938;BME280;11634;42.734;23.298;2023-12-04T09:32:08;96141.41;;;2.34;100.00
22938;BME280;11634;42.734;23.298;2023-12-04T09:34:36;96136.56;;;2.67;100.00
22938;BME280;11634;42.734;23.298;2023-12-04T09:37:04;96140.78;;;2.87;100.00
22938;BME280;11634;42.734;23.298;2023-12-04T09:39:30;96125.81;;;2.77;100.00
22938;BME280;11634;42.734;23.298;2023-12-04T09:41:57;96135.19;;;2.78;100.00
22938;BME280;11634;42.734;23.298;2023-12-04T09:44:24;96139.25;;;2.83;100.00
22938;BME280;11634;42.734;23.298;2023-12-04T09:46:51;96139.00;;;3.08;100.00
22938;BME280;11634;42.734;23.298;2023-12-04T09:49:17;96125.78;;;3.33;100.00
22938;BME280;11634;42.734;23.298;2023-12-04T09:51:43;96105.84;;;3.38;100.00
22938;BME280;11634;42.734;23.298;2023-12-04T09:54:09;96096.19;;;2.88;100.00
22938;BME280;11634;42.734;23.298;2023-12-04T09:56:37;96117.53;;;3.09;100.00
22938;BME280;11634;42.734;23.298;2023-12-04T09:59:05;96101.56;;;3.56;100.00
22938;BME280;11634;42.734;23.298;2023-12-04T10:01:40;96096.28;;;3.94;100.00
22938;BME280;11634;42.734;23.298;2023-12-04T10:04:12;96110.34;;;4.21;100.00
22938;BME280;11634;42.734;23.298;2023-12-04T10:06:38;96106.03;;;4.55;98.79
22938;BME280;11634;42.734;23.298;2023-12-04T10:09:04;96104.97;;;4.42;98.77
22938;BME280;11634;42.734;23.298;2023-12-04T10:11:39;96068.16;;;4.23;98.17
22938;BME280;11634;42.734;23.298;2023-12-04T10:14:15;96103.09;;;4.12;100.00
22938;BME280;11634;42.734;23.298;2023-12-04T10:16:42;96102.63;;;4.21;100.00
22938;BME280;11634;42.734;23.298;2023-12-04T10:19:17;96108.59;;;4.55;99.61
22938;BME280;11634;42.734;23.298;2023-12-04T10:21:44;96112.53;;;4.45;98.39
22938;BME280;11634;42.734;23.298;2023-12-04T10:24:33;96088.31;;;4.32;99.60
22938;BME280;11634;42.734;23.298;2023-12-04T10:27:08;96094.03;;;4.54;97.66
22938;BME280;11634;42.734;23.298;2023-12-04T10:29:43;96095.75;;;4.21;100.00
22938;BME280;11634;42.734;23.298;2023-12-04T10:32:10;96078.16;;;4.12;100.00
22938;BME280;11634;42.734;23.298;2023-12-04T10:34:36;96092.47;;;4.01;100.00
22938;BME280;11634;42.734;23.298;2023-12-04T10:37:03;96082.34;;;3.98;100.00
22938;BME280;11634;42.734;23.298;2023-12-04T10:39:45;96059.56;;;4.07;100.00
22938;BME280;11634;42.734;23.298;2023-12-04T10:42:12;96078.59;;;3.86;100.00
22938;BME280;11634;42.734;23.298;2023-12-04T10:44:40;96067.75;;;3.80;100.00
22938;BME280;11634;42.734;23.298;2023-12-04T10:47:06;96062.63;;;3.80;100.00
22938;BME280;11634;42.734;23.298;2023-12-04T10:49:32;96076.44;;;4.13;100.00
22938;BME280;11634;42.734;23.298;2023-12-04T10:52:00;96057.50;;;3.97;100.00
22938;BME280;11634;42.734;23.298;2023-12-04T10:54:27;96081.50;;;3.97;100.00
22938;BME280;11634;42.734;23.298;2023-12-04T10:56:58;96077.88;;;3.84;100.00
22938;BME280;11634;42.734;23.298;2023-12-04T10:59:27;96086.25;;;3.88;100.00
22938;BME280;11634;42.734;23.298;2023-12-04T11:02:04;96066.03;;;3.97;100.00
22938;BME280;11634;42.734;23.298;2023-12-04T11:04:31;96089.06;;;4.17;100.00
22938;BME280;11634;42.734;23.298;2023-12-04T11:07:00;96110.41;;;4.19;100.00
22938;BME280;11634;42.734;23.298;2023-12-04T11:09:29;96059.97;;;4.32;100.00
22938;BME280;11634;42.734;23.298;2023-12-04T11:12:03;96063.44;;;4.48;100.00
22938;BME280;11634;42.734;23.298;2023-12-04T11:14:35;96054.75;;;4.66;100.00
22938;BME280;11634;42.734;23.298;2023-12-04T11:17:04;96045.78;;;4.57;100.00
22938;BME280;11634;42.734;23.298;2023-12-04T11:19:55;96032.13;;;4.71;100.00
22938;BME280;11634;42.734;23.298;2023-12-04T11:22:25;96033.69;;;4.90;100.00
22938;BME280;11634;42.734;23.298;2023-12-04T11:24:51;96023.50;;;4.72;100.00
22938;BME280;11634;42.734;23.298;2023-12-04T11:27:17;96033.19;;;4.67;100.00
22938;BME280;11634;42.734;23.298;2023-12-04T11:29:45;96037.97;;;4.59;100.00
22938;BME280;11634;42.734;23.298;2023-12-04T11:32:15;96034.06;;;4.67;100.00
22938;BME280;11634;42.734;23.298;2023-12-04T11:34:55;96026.84;;;4.74;100.00
22938;BME280;11634;42.734;23.298;2023-12-04T11:37:25;96019.41;;;4.68;100.00
22938;BME280;11634;42.734;23.298;2023-12-04T11:39:51;96013.88;;;4.75;100.00
22938;BME280;11634;42.734;23.298;2023-12-04T11:42:24;96013.28;;;4.86;100.00
22938;BME280;11634;42.734;23.298;2023-12-04T11:44:55;96000.97;;;4.90;100.00
22938;BME280;11634;42.734;23.298;2023-12-04T11:47:22;96001.88;;;4.89;100.00
22938;BME280;11634;42.734;23.298;2023-12-04T11:49:48;96017.19;;;4.77;100.00
22938;BME280;11634;42.734;23.298;2023-12-04T11:52:13;96009.47;;;4.92;100.00
22938;BME280;11634;42.734;23.298;2023-12-04T11:55:01;96006.13;;;4.90;100.00
22938;BME280;11634;42.734;23.298;2023-12-04T11:57:38;96000.50;;;4.99;100.00
22938;BME280;11634;42.734;23.298;2023-12-04T12:00:25;96001.41;;;4.98;100.00
22938;BME280;11634;42.734;23.298;2023-12-04T12:05:20;96007.06;;;5.05;100.00
22938;BME280;11634;42.734;23.298;2023-12-04T12:07:46;95942.84;;;4.70;100.00
22938;BME280;11634;42.734;23.298;2023-12-04T12:10:13;95973.28;;;4.79;100.00
22938;BME280;11634;42.734;23.298;2023-12-04T12:12:42;95988.75;;;4.79;100.00
22938;BME280;11634;42.734;23.298;2023-12-04T12:15:09;95992.66;;;4.70;100.00
22938;BME280;11634;42.734;23.298;2023-12-04T12:17:37;95988.91;;;4.60;100.00
22938;BME280;11634;42.734;23.298;2023-12-04T12:20:03;95982.75;;;4.63;100.00
22938;BME280;11634;42.734;23.298;2023-12-04T12:22:36;95982.00;;;4.61;100.00
22938;BME280;11634;42.734;23.298;2023-12-04T12:25:04;95927.19;;;4.42;100.00
22938;BME280;11634;42.734;23.298;2023-12-04T12:27:30;95972.19;;;4.83;100.00
22938;BME280;11634;42.734;23.298;2023-12-04T12:29:56;95983.03;;;4.89;100.00
22938;BME280;11634;42.734;23.298;2023-12-04T12:32:22;95968.28;;;4.60;100.00
22938;BME280;11634;42.734;23.298;2023-12-04T12:34:48;95969.19;;;4.75;100.00
22938;BME280;11634;42.734;23.298;2023-12-04T12:37:13;95968.63;;;4.70;100.00
22938;BME280;11634;42.734;23.298;2023-12-04T12:39:40;95970.69;;;4.79;100.00
22938;BME280;11634;42.734;23.298;2023-12-04T12:42:06;95965.97;;;4.87;100.00
22938;BME280;11634;42.734;23.298;2023-12-04T12:44:39;95970.94;;;4.74;100.00
22938;BME280;11634;42.734;23.298;2023-12-04T12:47:08;95980.50;;;4.72;100.00
22938;BME280;11634;42.734;23.298;2023-12-04T12:49:34;95933.53;;;4.67;100.00